sensor_id;sensor_type;location;lat;lon;timestamp;P1;durP1;ratioP1;P2;durP2;ratioP2
55913;SDS011;58179;48.776;9.124;2023-04-15T00:00:54;9.45;;;4.07;;
55913;SDS011;58179;48.776;9.124;2023-04-15T00:03:20;7.03;;;3.80;;
55913;SDS011;58179;48.776;9.124;2023-04-15T00:05:46;12.02;;;4.50;;
55913;SDS011;58179;48.776;9.124;2023-04-15T00:08:12;8.57;;;3.92;;
55913;SDS011;58179;48.776;9.124;2023-04-15T00:10:39;9.63;;;4.13;;
55913;SDS011;58179;48.776;9.124;2023-04-15T00:13:09;9.13;;;3.97;;
55913;SDS011;58179;48.776;9.124;2023-04-15T00:15:35;13.40;;;3.95;;
55913;SDS011;58179;48.776;9.124;2023-04-15T00:18:02;10.63;;;4.20;;
55913;SDS011;58179;48.776;9.124;2023-04-15T00:20:28;8.68;;;3.75;;
55913;SDS011;58179;48.776;9.124;2023-04-15T00:22:54;8.38;;;3.42;;
55913;SDS011;58179;48.776;9.124;2023-04-15T00:25:20;8.18;;;3.35;;
55913;SDS011;58179;48.776;9.124;2023-04-15T00:27:46;10.50;;;3.83;;
55913;SDS011;58179;48.776;9.124;2023-04-15T00:30:14;8.13;;;3.70;;
55913;SDS011;58179;48.776;9.124;2023-04-15T00:32:40;8.25;;;4.22;;
55913;SDS011;58179;48.776;9.124;2023-04-15T00:35:06;11.25;;;4.10;;
55913;SDS011;58179;48.776;9.124;2023-04-15T00:37:33;11.05;;;4.07;;
55913;SDS011;58179;48.776;9.124;2023-04-15T00:39:59;10.20;;;3.90;;
55913;SDS011;58179;48.776;9.124;2023-04-15T00:42:25;10.60;;;3.83;;
55913;SDS011;58179;48.776;9.124;2023-04-15T00:44:52;11.27;;;3.72;;
55913;SDS011;58179;48.776;9.124;2023-04-15T00:47:19;9.70;;;3.92;;
55913;SDS011;58179;48.776;9.124;2023-04-15T00:49:46;8.40;;;3.97;;
55913;SDS011;58179;48.776;9.124;2023-04-15T00:52:12;9.50;;;4.00;;
55913;SDS011;58179;48.776;9.124;2023-04-15T00:54:38;10.80;;;3.78;;
55913;SDS011;58179;48.776;9.124;2023-04-15T00:57:04;8.98;;;3.72;;
55913;SDS011;58179;48.776;9.124;2023-04-15T00:59:31;7.55;;;3.97;;
55913;SDS011;58179;48.776;9.124;2023-04-15T01:01:58;9.85;;;4.22;;
55913;SDS011;58179;48.776;9.124;2023-04-15T01:04:25;8.48;;;3.80;;
55913;SDS011;58179;48.776;9.124;2023-04-15T01:06:51;10.35;;;4.60;;
55913;SDS011;58179;48.776;9.124;2023-04-15T01:09:17;10.57;;;3.88;;
55913;SDS011;58179;48.776;9.124;2023-04-15T01:11:43;8.02;;;3.65;;
55913;SDS011;58179;48.776;9.124;2023-04-15T01:14:09;9.35;;;3.70;;
55913;SDS011;58179;48.776;9.124;2023-04-15T01:16:35;6.60;;;3.95;;
55913;SDS011;58179;48.776;9.124;2023-04-15T01:19:04;11.10;;;3.87;;
55913;SDS011;58179;48.776;9.124;2023-04-15T01:21:32;11.32;;;4.03;;
55913;SDS011;58179;48.776;9.124;2023-04-15T01:24:00;8.38;;;3.90;;
55913;SDS011;58179;48.776;9.124;2023-04-15T01:26:32;7.88;;;3.47;;
55913;SDS011;58179;48.776;9.124;2023-04-15T01:28:58;9.60;;;4.25;;
55913;SDS011;58179;48.776;9.124;2023-04-15T01:31:24;9.02;;;3.80;;
55913;SDS011;58179;48.776;9.124;2023-04-15T01:33:49;9.30;;;4.27;;
55913;SDS011;58179;48.776;9.124;2023-04-15T01:36:15;5.90;;;3.80;;
55913;SDS011;58179;48.776;9.124;2023-04-15T01:38:41;7.93;;;3.70;;
55913;SDS011;58179;48.776;9.124;2023-04-15T01:41:07;12.73;;;3.77;;
55913;SDS011;58179;48.776;9.124;2023-04-15T01:43:35;10.73;;;3.90;;
55913;SDS011;58179;48.776;9.124;2023-04-15T01:46:01;15.40;;;4.30;;
55913;SDS011;58179;48.776;9.124;2023-04-15T01:48:27;12.05;;;3.90;;
55913;SDS011;58179;48.776;9.124;2023-04-15T01:50:53;9.20;;;3.70;;
55913;SDS011;58179;48.776;9.124;2023-04-15T01:53:22;8.23;;;3.80;;
55913;SDS011;58179;48.776;9.124;2023-04-15T01:55:48;7.65;;;3.80;;
55913;SDS011;58179;48.776;9.124;2023-04-15T01:58:14;7.57;;;3.65;;
55913;SDS011;58179;48.776;9.124;2023-04-15T02:00:42;8.90;;;4.00;;
55913;SDS011;58179;48.776;9.124;2023-04-15T02:03:08;7.53;;;4.00;;
55913;SDS011;58179;48.776;9.124;2023-04-15T02:05:34;8.40;;;3.95;;
55913;SDS011;58179;48.776;9.124;2023-04-15T02:08:00;6.93;;;3.90;;
55913;SDS011;58179;48.776;9.124;2023-04-15T02:10:27;7.97;;;3.65;;
55913;SDS011;58179;48.776;9.124;2023-04-15T02:12:53;10.55;;;3.85;;
55913;SDS011;58179;48.776;9.124;2023-04-15T02:15:19;5.97;;;3.30;;
55913;SDS011;58179;48.776;9.124;2023-04-15T02:17:46;9.45;;;3.90;;
55913;SDS011;58179;48.776;9.124;2023-04-15T02:20:15;8.57;;;3.97;;
55913;SDS011;58179;48.776;9.124;2023-04-15T02:22:41;5.43;;;3.42;;
55913;SDS011;58179;48.776;9.124;2023-04-15T02:25:08;6.20;;;3.40;;
55913;SDS011;58179;48.776;9.124;2023-04-15T02:27:34;11.83;;;4.37;;
55913;SDS011;58179;48.776;9.124;2023-04-15T02:30:00;7.07;;;3.53;;
55913;SDS011;58179;48.776;9.124;2023-04-15T02:32:28;7.72;;;3.63;;
55913;SDS011;58179;48.776;9.124;2023-04-15T02:34:55;13.18;;;3.78;;
55913;SDS011;58179;48.776;9.124;2023-04-15T02:37:21;7.93;;;3.67;;
55913;SDS011;58179;48.776;9.124;2023-04-15T02:39:47;5.75;;;3.55;;
55913;SDS011;58179;48.776;9.124;2023-04-15T02:42:13;6.22;;;3.58;;
55913;SDS011;58179;48.776;9.124;2023-04-15T02:44:39;6.07;;;3.38;;
55913;SDS011;58179;48.776;9.124;2023-04-15T02:47:04;7.40;;;3.70;;
55913;SDS011;58179;48.776;9.124;2023-04-15T02:49:31;6.15;;;3.40;;
55913;SDS011;58179;48.776;9.124;2023-04-15T02:51:59;12.80;;;4.13;;
55913;SDS011;58179;48.776;9.124;2023-04-15T02:54:25;11.70;;;4.25;;
55913;SDS011;58179;48.776;9.124;2023-04-15T02:56:54;9.80;;;3.90;;
55913;SDS011;58179;48.776;9.124;2023-04-15T02:59:20;7.28;;;3.25;;
55913;SDS011;58179;48.776;9.124;2023-04-15T03:01:46;6.57;;;4.00;;
55913;SDS011;58179;48.776;9.124;2023-04-15T03:04:12;10.73;;;4.47;;
55913;SDS011;58179;48.776;9.124;2023-04-15T03:06:38;10.82;;;3.72;;
55913;SDS011;58179;48.776;9.124;2023-04-15T03:09:06;8.80;;;3.50;;
55913;SDS011;58179;48.776;9.124;2023-04-15T03:11:32;7.97;;;3.53;;
55913;SDS011;58179;48.776;9.124;2023-04-15T03:13:58;7.65;;;3.90;;
55913;SDS011;58179;48.776;9.124;2023-04-15T03:16:23;8.68;;;3.90;;
55913;SDS011;58179;48.776;9.124;2023-04-15T03:18:49;10.50;;;3.47;;
55913;SDS011;58179;48.776;9.124;2023-04-15T03:21:15;8.07;;;3.70;;
55913;SDS011;58179;48.776;9.124;2023-04-15T03:23:42;8.32;;;4.15;;
55913;SDS011;58179;48.776;9.124;2023-04-15T03:26:09;12.80;;;4.28;;
55913;SDS011;58179;48.776;9.124;2023-04-15T03:28:47;9.60;;;3.80;;
55913;SDS011;58179;48.776;9.124;2023-04-15T03:31:13;7.47;;;3.70;;
55913;SDS011;58179;48.776;9.124;2023-04-15T03:33:39;8.88;;;4.00;;
55913;SDS011;58179;48.776;9.124;2023-04-15T03:36:05;10.25;;;3.70;;
55913;SDS011;58179;48.776;9.124;2023-04-15T03:38:31;9.32;;;3.60;;
55913;SDS011;58179;48.776;9.124;2023-04-15T03:40:57;7.93;;;3.87;;
55913;SDS011;58179;48.776;9.124;2023-04-15T03:43:24;6.40;;;3.90;;
55913;SDS011;58179;48.776;9.124;2023-04-15T03:45:50;9.35;;;4.45;;
55913;SDS011;58179;48.776;9.124;2023-04-15T03:48:16;12.00;;;4.05;;
55913;SDS011;58179;48.776;9.124;2023-04-15T03:50:42;9.07;;;4.05;;
55913;SDS011;58179;48.776;9.124;2023-04-15T03:53:08;8.00;;;3.90;;
55913;SDS011;58179;48.776;9.124;2023-04-15T03:55:34;5.05;;;3.38;;
55913;SDS011;58179;48.776;9.124;2023-04-15T03:58:00;10.88;;;3.83;;
55913;SDS011;58179;48.776;9.124;2023-04-15T04:00:27;9.20;;;4.40;;
55913;SDS011;58179;48.776;9.124;2023-04-15T04:02:53;6.15;;;3.47;;
55913;SDS011;58179;48.776;9.124;2023-04-15T04:05:20;10.33;;;3.80;;
55913;SDS011;58179;48.776;9.124;2023-04-15T04:07:45;8.68;;;3.63;;
55913;SDS011;58179;48.776;9.124;2023-04-15T04:10:11;10.07;;;3.90;;
55913;SDS011;58179;48.776;9.124;2023-04-15T04:12:37;9.07;;;4.20;;
55913;SDS011;58179;48.776;9.124;2023-04-15T04:15:03;8.52;;;4.00;;
55913;SDS011;58179;48.776;9.124;2023-04-15T04:17:32;9.00;;;3.85;;
55913;SDS011;58179;48.776;9.124;2023-04-15T04:19:58;8.40;;;3.85;;
55913;SDS011;58179;48.776;9.124;2023-04-15T04:22:24;9.23;;;3.83;;
55913;SDS011;58179;48.776;9.124;2023-04-15T04:24:50;4.25;;;3.17;;
55913;SDS011;58179;48.776;9.124;2023-04-15T04:27:16;8.75;;;4.35;;
55913;SDS011;58179;48.776;9.124;2023-04-15T04:29:42;7.10;;;3.80;;
55913;SDS011;58179;48.776;9.124;2023-04-15T04:32:08;10.10;;;4.30;;
55913;SDS011;58179;48.776;9.124;2023-04-15T04:34:35;8.85;;;4.65;;
55913;SDS011;58179;48.776;9.124;2023-04-15T04:37:01;8.20;;;4.78;;
55913;SDS011;58179;48.776;9.124;2023-04-15T04:39:27;8.73;;;4.60;;
55913;SDS011;58179;48.776;9.124;2023-04-15T04:41:53;13.13;;;5.22;;
55913;SDS011;58179;48.776;9.124;2023-04-15T04:44:20;11.98;;;5.32;;
55913;SDS011;58179;48.776;9.124;2023-04-15T04:46:46;11.83;;;5.00;;
55913;SDS011;58179;48.776;9.124;2023-04-15T04:49:12;8.18;;;4.55;;
55913;SDS011;58179;48.776;9.124;2023-04-15T04:51:39;6.90;;;4.07;;
55913;SDS011;58179;48.776;9.124;2023-04-15T04:54:05;9.68;;;4.65;;
55913;SDS011;58179;48.776;9.124;2023-04-15T04:56:31;10.02;;;4.70;;
55913;SDS011;58179;48.776;9.124;2023-04-15T04:58:58;10.52;;;4.50;;
55913;SDS011;58179;48.776;9.124;2023-04-15T05:01:24;7.70;;;4.30;;
55913;SDS011;58179;48.776;9.124;2023-04-15T05:03:51;7.78;;;3.88;;
55913;SDS011;58179;48.776;9.124;2023-04-15T05:06:17;8.23;;;4.10;;
55913;SDS011;58179;48.776;9.124;2023-04-15T05:08:44;13.55;;;4.70;;
55913;SDS011;58179;48.776;9.124;2023-04-15T05:11:11;6.50;;;4.05;;
55913;SDS011;58179;48.776;9.124;2023-04-15T05:13:37;8.00;;;4.20;;
55913;SDS011;58179;48.776;9.124;2023-04-15T05:16:03;10.52;;;4.80;;
55913;SDS011;58179;48.776;9.124;2023-04-15T05:18:30;6.68;;;3.90;;
55913;SDS011;58179;48.776;9.124;2023-04-15T05:20:56;7.22;;;4.40;;
55913;SDS011;58179;48.776;9.124;2023-04-15T05:23:22;9.05;;;4.55;;
55913;SDS011;58179;48.776;9.124;2023-04-15T05:25:49;7.60;;;4.30;;
55913;SDS011;58179;48.776;9.124;2023-04-15T05:28:16;9.43;;;4.73;;
55913;SDS011;58179;48.776;9.124;2023-04-15T05:30:42;9.15;;;4.65;;
55913;SDS011;58179;48.776;9.124;2023-04-15T05:33:08;8.07;;;4.50;;
55913;SDS011;58179;48.776;9.124;2023-04-15T05:35:33;12.82;;;5.47;;
55913;SDS011;58179;48.776;9.124;2023-04-15T05:37:59;10.38;;;5.55;;
55913;SDS011;58179;48.776;9.124;2023-04-15T05:40:25;9.13;;;4.82;;
55913;SDS011;58179;48.776;9.124;2023-04-15T05:42:53;7.75;;;5.07;;
55913;SDS011;58179;48.776;9.124;2023-04-15T05:45:19;8.68;;;5.60;;
55913;SDS011;58179;48.776;9.124;2023-04-15T05:47:45;10.73;;;6.03;;
55913;SDS011;58179;48.776;9.124;2023-04-15T05:50:11;10.95;;;5.70;;
55913;SDS011;58179;48.776;9.124;2023-04-15T05:52:37;10.03;;;5.63;;
55913;SDS011;58179;48.776;9.124;2023-04-15T05:55:04;9.95;;;5.18;;
55913;SDS011;58179;48.776;9.124;2023-04-15T05:57:30;8.43;;;5.43;;
55913;SDS011;58179;48.776;9.124;2023-04-15T05:59:58;10.85;;;5.72;;
55913;SDS011;58179;48.776;9.124;2023-04-15T06:02:24;11.20;;;4.85;;
55913;SDS011;58179;48.776;9.124;2023-04-15T06:04:50;9.85;;;5.05;;
55913;SDS011;58179;48.776;9.124;2023-04-15T06:07:16;9.18;;;5.05;;
55913;SDS011;58179;48.776;9.124;2023-04-15T06:09:42;10.70;;;5.43;;
55913;SDS011;58179;48.776;9.124;2023-04-15T06:12:08;12.07;;;5.65;;
55913;SDS011;58179;48.776;9.124;2023-04-15T06:14:36;9.50;;;5.30;;
55913;SDS011;58179;48.776;9.124;2023-04-15T06:17:03;14.20;;;5.70;;
55913;SDS011;58179;48.776;9.124;2023-04-15T06:19:29;10.65;;;5.00;;
55913;SDS011;58179;48.776;9.124;2023-04-15T06:21:55;9.40;;;4.95;;
55913;SDS011;58179;48.776;9.124;2023-04-15T06:24:22;15.55;;;5.68;;
55913;SDS011;58179;48.776;9.124;2023-04-15T06:26:48;13.05;;;5.50;;
55913;SDS011;58179;48.776;9.124;2023-04-15T06:29:14;9.60;;;5.50;;
55913;SDS011;58179;48.776;9.124;2023-04-15T06:31:40;10.37;;;5.23;;
55913;SDS011;58179;48.776;9.124;2023-04-15T06:34:07;7.60;;;5.13;;
55913;SDS011;58179;48.776;9.124;2023-04-15T06:36:33;12.00;;;5.63;;
55913;SDS011;58179;48.776;9.124;2023-04-15T06:38:59;12.02;;;5.63;;
55913;SDS011;58179;48.776;9.124;2023-04-15T06:41:25;15.30;;;5.72;;
55913;SDS011;58179;48.776;9.124;2023-04-15T06:43:51;10.52;;;5.32;;
55913;SDS011;58179;48.776;9.124;2023-04-15T06:46:17;8.63;;;4.70;;
55913;SDS011;58179;48.776;9.124;2023-04-15T06:48:43;9.18;;;5.72;;
55913;SDS011;58179;48.776;9.124;2023-04-15T06:51:11;12.30;;;6.05;;
55913;SDS011;58179;48.776;9.124;2023-04-15T06:53:36;10.07;;;5.10;;
55913;SDS011;58179;48.776;9.124;2023-04-15T06:56:05;9.15;;;5.05;;
55913;SDS011;58179;48.776;9.124;2023-04-15T06:58:32;9.48;;;5.53;;
55913;SDS011;58179;48.776;9.124;2023-04-15T07:00:58;10.95;;;6.15;;
55913;SDS011;58179;48.776;9.124;2023-04-15T07:03:24;10.90;;;5.40;;
55913;SDS011;58179;48.776;9.124;2023-04-15T07:05:51;10.00;;;5.40;;
55913;SDS011;58179;48.776;9.124;2023-04-15T07:08:19;12.43;;;6.47;;
55913;SDS011;58179;48.776;9.124;2023-04-15T07:10:45;14.48;;;6.43;;
55913;SDS011;58179;48.776;9.124;2023-04-15T07:13:11;8.38;;;5.53;;
55913;SDS011;58179;48.776;9.124;2023-04-15T07:15:37;12.32;;;6.22;;
55913;SDS011;58179;48.776;9.124;2023-04-15T07:18:03;10.53;;;5.77;;
55913;SDS011;58179;48.776;9.124;2023-04-15T07:20:29;8.40;;;5.38;;
55913;SDS011;58179;48.776;9.124;2023-04-15T07:22:55;9.27;;;5.28;;
55913;SDS011;58179;48.776;9.124;2023-04-15T07:25:22;8.57;;;6.07;;
55913;SDS011;58179;48.776;9.124;2023-04-15T07:27:48;10.52;;;5.50;;
55913;SDS011;58179;48.776;9.124;2023-04-15T07:30:14;8.88;;;5.10;;
55913;SDS011;58179;48.776;9.124;2023-04-15T07:32:41;10.57;;;5.80;;
55913;SDS011;58179;48.776;9.124;2023-04-15T07:35:07;12.45;;;5.72;;
55913;SDS011;58179;48.776;9.124;2023-04-15T07:37:33;11.15;;;4.22;;
55913;SDS011;58179;48.776;9.124;2023-04-15T07:40:00;9.48;;;4.38;;
55913;SDS011;58179;48.776;9.124;2023-04-15T07:42:27;10.77;;;4.93;;
55913;SDS011;58179;48.776;9.124;2023-04-15T07:44:53;8.70;;;4.50;;
55913;SDS011;58179;48.776;9.124;2023-04-15T07:47:19;11.80;;;4.45;;
55913;SDS011;58179;48.776;9.124;2023-04-15T07:49:45;9.10;;;3.90;;
55913;SDS011;58179;48.776;9.124;2023-04-15T07:52:11;11.70;;;4.93;;
55913;SDS011;58179;48.776;9.124;2023-04-15T07:54:37;7.93;;;3.90;;
55913;SDS011;58179;48.776;9.124;2023-04-15T07:57:03;8.40;;;3.60;;
55913;SDS011;58179;48.776;9.124;2023-04-15T07:59:31;7.60;;;3.78;;
55913;SDS011;58179;48.776;9.124;2023-04-15T08:01:57;7.97;;;3.95;;
55913;SDS011;58179;48.776;9.124;2023-04-15T08:04:23;7.50;;;4.38;;
55913;SDS011;58179;48.776;9.124;2023-04-15T08:06:49;8.07;;;4.10;;
55913;SDS011;58179;48.776;9.124;2023-04-15T08:09:16;7.20;;;3.55;;
55913;SDS011;58179;48.776;9.124;2023-04-15T08:11:42;7.22;;;3.78;;
55913;SDS011;58179;48.776;9.124;2023-04-15T08:14:08;7.53;;;3.25;;
55913;SDS011;58179;48.776;9.124;2023-04-15T08:16:35;8.70;;;2.90;;
55913;SDS011;58179;48.776;9.124;2023-04-15T08:19:01;8.23;;;3.25;;
55913;SDS011;58179;48.776;9.124;2023-04-15T08:21:27;8.05;;;2.55;;
55913;SDS011;58179;48.776;9.124;2023-04-15T08:23:54;5.80;;;2.53;;
55913;SDS011;58179;48.776;9.124;2023-04-15T08:26:21;6.97;;;2.60;;
55913;SDS011;58179;48.776;9.124;2023-04-15T08:28:47;9.57;;;2.90;;
55913;SDS011;58179;48.776;9.124;2023-04-15T08:31:14;7.28;;;2.85;;
55913;SDS011;58179;48.776;9.124;2023-04-15T08:33:43;6.60;;;2.10;;
55913;SDS011;58179;48.776;9.124;2023-04-15T08:36:09;5.73;;;2.50;;
55913;SDS011;58179;48.776;9.124;2023-04-15T08:38:36;8.45;;;2.67;;
55913;SDS011;58179;48.776;9.124;2023-04-15T08:41:02;5.53;;;2.40;;
55913;SDS011;58179;48.776;9.124;2023-04-15T08:43:37;6.43;;;2.40;;
55913;SDS011;58179;48.776;9.124;2023-04-15T08:46:18;4.68;;;2.63;;
55913;SDS011;58179;48.776;9.124;2023-04-15T08:48:46;5.47;;;2.55;;
55913;SDS011;58179;48.776;9.124;2023-04-15T08:51:13;5.25;;;2.50;;
55913;SDS011;58179;48.776;9.124;2023-04-15T08:53:40;7.40;;;2.50;;
55913;SDS011;58179;48.776;9.124;2023-04-15T08:56:08;5.07;;;2.70;;
55913;SDS011;58179;48.776;9.124;2023-04-15T08:58:36;5.68;;;2.80;;
55913;SDS011;58179;48.776;9.124;2023-04-15T09:01:02;6.97;;;2.65;;
55913;SDS011;58179;48.776;9.124;2023-04-15T09:03:28;4.93;;;2.80;;
55913;SDS011;58179;48.776;9.124;2023-04-15T09:05:57;5.25;;;2.55;;
55913;SDS011;58179;48.776;9.124;2023-04-15T09:08:23;6.40;;;2.70;;
55913;SDS011;58179;48.776;9.124;2023-04-15T09:10:49;7.75;;;2.92;;
55913;SDS011;58179;48.776;9.124;2023-04-15T09:13:16;5.30;;;2.67;;
55913;SDS011;58179;48.776;9.124;2023-04-15T09:15:43;5.72;;;2.70;;
55913;SDS011;58179;48.776;9.124;2023-04-15T09:18:10;5.43;;;2.57;;
55913;SDS011;58179;48.776;9.124;2023-04-15T09:20:38;8.60;;;2.90;;
55913;SDS011;58179;48.776;9.124;2023-04-15T09:23:11;7.38;;;3.10;;
55913;SDS011;58179;48.776;9.124;2023-04-15T09:25:39;8.70;;;3.15;;
55913;SDS011;58179;48.776;9.124;2023-04-15T09:28:09;5.70;;;2.70;;
55913;SDS011;58179;48.776;9.124;2023-04-15T09:30:35;6.13;;;2.90;;
55913;SDS011;58179;48.776;9.124;2023-04-15T09:33:02;7.82;;;2.65;;
55913;SDS011;58179;48.776;9.124;2023-04-15T09:35:35;7.45;;;2.90;;
55913;SDS011;58179;48.776;9.124;2023-04-15T09:38:02;4.80;;;2.80;;
55913;SDS011;58179;48.776;9.124;2023-04-15T09:40:31;6.05;;;2.78;;
55913;SDS011;58179;48.776;9.124;2023-04-15T09:42:59;8.30;;;3.90;;
55913;SDS011;58179;48.776;9.124;2023-04-15T09:45:26;7.53;;;3.00;;
55913;SDS011;58179;48.776;9.124;2023-04-15T09:47:53;7.15;;;3.30;;
55913;SDS011;58179;48.776;9.124;2023-04-15T09:50:19;6.60;;;2.70;;
55913;SDS011;58179;48.776;9.124;2023-04-15T09:52:45;4.22;;;2.80;;
55913;SDS011;58179;48.776;9.124;2023-04-15T09:55:12;6.18;;;2.60;;
55913;SDS011;58179;48.776;9.124;2023-04-15T09:57:41;7.88;;;2.80;;
55913;SDS011;58179;48.776;9.124;2023-04-15T10:00:08;7.95;;;2.92;;
55913;SDS011;58179;48.776;9.124;2023-04-15T10:02:35;6.68;;;2.90;;
55913;SDS011;58179;48.776;9.124;2023-04-15T10:05:01;6.35;;;3.00;;
55913;SDS011;58179;48.776;9.124;2023-04-15T10:07:28;8.05;;;3.17;;
55913;SDS011;58179;48.776;9.124;2023-04-15T10:09:54;5.03;;;2.72;;
55913;SDS011;58179;48.776;9.124;2023-04-15T10:12:22;6.95;;;2.80;;
55913;SDS011;58179;48.776;9.124;2023-04-15T10:14:51;3.97;;;2.70;;
55913;SDS011;58179;48.776;9.124;2023-04-15T10:17:22;5.95;;;2.80;;
55913;SDS011;58179;48.776;9.124;2023-04-15T10:19:57;6.57;;;3.20;;
55913;SDS011;58179;48.776;9.124;2023-04-15T10:22:26;7.78;;;2.85;;
55913;SDS011;58179;48.776;9.124;2023-04-15T10:24:53;5.20;;;2.88;;
55913;SDS011;58179;48.776;9.124;2023-04-15T10:27:20;3.90;;;2.75;;
55913;SDS011;58179;48.776;9.124;2023-04-15T10:29:47;5.80;;;2.92;;
55913;SDS011;58179;48.776;9.124;2023-04-15T10:32:16;8.25;;;3.20;;
55913;SDS011;58179;48.776;9.124;2023-04-15T10:34:44;7.93;;;3.25;;
55913;SDS011;58179;48.776;9.124;2023-04-15T10:37:12;6.32;;;2.90;;
55913;SDS011;58179;48.776;9.124;2023-04-15T10:39:45;9.07;;;2.92;;
55913;SDS011;58179;48.776;9.124;2023-04-15T10:42:11;6.00;;;2.60;;
55913;SDS011;58179;48.776;9.124;2023-04-15T10:44:41;4.30;;;2.33;;
55913;SDS011;58179;48.776;9.124;2023-04-15T10:47:10;4.90;;;2.17;;
55913;SDS011;58179;48.776;9.124;2023-04-15T10:49:42;7.60;;;2.90;;
55913;SDS011;58179;48.776;9.124;2023-04-15T10:52:10;3.60;;;2.47;;
55913;SDS011;58179;48.776;9.124;2023-04-15T10:54:36;3.95;;;2.40;;
55913;SDS011;58179;48.776;9.124;2023-04-15T10:57:06;7.07;;;3.15;;
55913;SDS011;58179;48.776;9.124;2023-04-15T11:02:43;6.93;;;3.58;;
55913;SDS011;58179;48.776;9.124;2023-04-15T11:05:11;5.50;;;2.70;;
55913;SDS011;58179;48.776;9.124;2023-04-15T11:07:39;6.43;;;2.72;;
55913;SDS011;58179;48.776;9.124;2023-04-15T11:13:17;5.03;;;3.10;;
55913;SDS011;58179;48.776;9.124;2023-04-15T11:15:58;6.63;;;2.90;;
55913;SDS011;58179;48.776;9.124;2023-04-15T11:18:29;4.40;;;2.50;;
55913;SDS011;58179;48.776;9.124;2023-04-15T11:20:58;8.13;;;3.10;;
55913;SDS011;58179;48.776;9.124;2023-04-15T11:23:28;7.35;;;3.10;;
55913;SDS011;58179;48.776;9.124;2023-04-15T11:26:00;8.57;;;3.80;;
55913;SDS011;58179;48.776;9.124;2023-04-15T11:28:31;7.87;;;3.30;;
55913;SDS011;58179;48.776;9.124;2023-04-15T11:30:57;8.10;;;3.22;;
55913;SDS011;58179;48.776;9.124;2023-04-15T11:33:32;7.03;;;2.80;;
55913;SDS011;58179;48.776;9.124;2023-04-15T11:35:58;6.32;;;3.05;;
55913;SDS011;58179;48.776;9.124;2023-04-15T11:38:25;4.70;;;2.60;;
55913;SDS011;58179;48.776;9.124;2023-04-15T11:40:52;7.47;;;3.53;;
55913;SDS011;58179;48.776;9.124;2023-04-15T11:43:18;7.47;;;3.42;;
55913;SDS011;58179;48.776;9.124;2023-04-15T11:45:47;5.50;;;3.33;;
55913;SDS011;58179;48.776;9.124;2023-04-15T11:48:16;6.68;;;3.05;;
55913;SDS011;58179;48.776;9.124;2023-04-15T11:50:44;8.35;;;3.35;;
55913;SDS011;58179;48.776;9.124;2023-04-15T11:53:11;7.88;;;3.33;;
55913;SDS011;58179;48.776;9.124;2023-04-15T11:55:41;8.97;;;3.80;;
55913;SDS011;58179;48.776;9.124;2023-04-15T11:58:09;9.95;;;3.90;;
55913;SDS011;58179;48.776;9.124;2023-04-15T12:00:37;6.60;;;3.40;;
55913;SDS011;58179;48.776;9.124;2023-04-15T12:03:11;8.73;;;4.28;;
55913;SDS011;58179;48.776;9.124;2023-04-15T12:11:28;9.90;;;3.30;;
55913;SDS011;58179;48.776;9.124;2023-04-15T12:13:57;7.82;;;3.30;;
55913;SDS011;58179;48.776;9.124;2023-04-15T12:16:27;8.02;;;3.38;;
55913;SDS011;58179;48.776;9.124;2023-04-15T12:18:54;9.20;;;3.43;;
55913;SDS011;58179;48.776;9.124;2023-04-15T12:21:25;8.52;;;3.50;;
55913;SDS011;58179;48.776;9.124;2023-04-15T12:23:53;6.80;;;3.20;;
55913;SDS011;58179;48.776;9.124;2023-04-15T12:26:24;7.00;;;3.22;;
55913;SDS011;58179;48.776;9.124;2023-04-15T12:28:54;8.05;;;3.20;;
55913;SDS011;58179;48.776;9.124;2023-04-15T12:31:21;7.65;;;2.95;;
55913;SDS011;58179;48.776;9.124;2023-04-15T12:33:48;8.27;;;2.90;;
55913;SDS011;58179;48.776;9.124;2023-04-15T12:36:14;6.50;;;3.05;;
55913;SDS011;58179;48.776;9.124;2023-04-15T12:38:41;9.23;;;3.10;;
55913;SDS011;58179;48.776;9.124;2023-04-15T12:41:07;6.57;;;3.33;;
55913;SDS011;58179;48.776;9.124;2023-04-15T12:43:33;4.93;;;2.63;;
55913;SDS011;58179;48.776;9.124;2023-04-15T12:46:00;5.63;;;2.85;;
55913;SDS011;58179;48.776;9.124;2023-04-15T12:48:25;5.50;;;3.17;;
55913;SDS011;58179;48.776;9.124;2023-04-15T12:50:51;6.63;;;2.97;;
55913;SDS011;58179;48.776;9.124;2023-04-15T12:53:17;6.50;;;3.10;;
55913;SDS011;58179;48.776;9.124;2023-04-15T12:55:45;6.60;;;3.15;;
55913;SDS011;58179;48.776;9.124;2023-04-15T12:58:12;5.32;;;3.20;;
55913;SDS011;58179;48.776;9.124;2023-04-15T13:00:38;4.32;;;3.20;;
55913;SDS011;58179;48.776;9.124;2023-04-15T13:03:04;4.60;;;2.50;;
55913;SDS011;58179;48.776;9.124;2023-04-15T13:05:30;3.30;;;2.63;;
55913;SDS011;58179;48.776;9.124;2023-04-15T13:07:56;4.53;;;2.92;;
55913;SDS011;58179;48.776;9.124;2023-04-15T13:10:22;4.70;;;2.80;;
55913;SDS011;58179;48.776;9.124;2023-04-15T13:12:49;7.37;;;2.90;;
55913;SDS011;58179;48.776;9.124;2023-04-15T13:15:17;5.25;;;2.40;;
55913;SDS011;58179;48.776;9.124;2023-04-15T13:17:46;4.40;;;2.30;;
55913;SDS011;58179;48.776;9.124;2023-04-15T13:20:12;8.50;;;2.85;;
55913;SDS011;58179;48.776;9.124;2023-04-15T13:22:38;5.45;;;2.70;;
55913;SDS011;58179;48.776;9.124;2023-04-15T13:25:05;4.32;;;2.70;;
55913;SDS011;58179;48.776;9.124;2023-04-15T13:27:32;6.57;;;3.05;;
55913;SDS011;58179;48.776;9.124;2023-04-15T13:29:59;5.28;;;2.63;;
55913;SDS011;58179;48.776;9.124;2023-04-15T13:32:25;3.33;;;2.60;;
55913;SDS011;58179;48.776;9.124;2023-04-15T13:34:51;5.43;;;2.90;;
55913;SDS011;58179;48.776;9.124;2023-04-15T13:37:18;2.65;;;2.33;;
55913;SDS011;58179;48.776;9.124;2023-04-15T13:39:45;4.05;;;2.60;;
55913;SDS011;58179;48.776;9.124;2023-04-15T13:42:11;3.78;;;2.53;;
55913;SDS011;58179;48.776;9.124;2023-04-15T13:44:37;2.70;;;2.22;;
55913;SDS011;58179;48.776;9.124;2023-04-15T13:47:04;4.43;;;3.08;;
55913;SDS011;58179;48.776;9.124;2023-04-15T13:49:30;3.25;;;2.20;;
55913;SDS011;58179;48.776;9.124;2023-04-15T13:51:56;3.42;;;2.03;;
55913;SDS011;58179;48.776;9.124;2023-04-15T13:54:22;3.85;;;2.00;;
55913;SDS011;58179;48.776;9.124;2023-04-15T13:56:48;3.80;;;2.00;;
55913;SDS011;58179;48.776;9.124;2023-04-15T13:59:14;5.00;;;2.30;;
55913;SDS011;58179;48.776;9.124;2023-04-15T14:01:40;4.32;;;1.80;;
55913;SDS011;58179;48.776;9.124;2023-04-15T14:04:08;2.67;;;1.70;;
55913;SDS011;58179;48.776;9.124;2023-04-15T14:06:34;3.60;;;1.60;;
55913;SDS011;58179;48.776;9.124;2023-04-15T14:09:00;2.40;;;1.70;;
55913;SDS011;58179;48.776;9.124;2023-04-15T14:11:26;3.60;;;2.17;;
55913;SDS011;58179;48.776;9.124;2023-04-15T14:13:53;4.75;;;2.10;;
55913;SDS011;58179;48.776;9.124;2023-04-15T14:16:19;3.97;;;1.60;;
55913;SDS011;58179;48.776;9.124;2023-04-15T14:18:45;4.03;;;1.70;;
55913;SDS011;58179;48.776;9.124;2023-04-15T14:21:12;4.00;;;1.70;;
55913;SDS011;58179;48.776;9.124;2023-04-15T14:23:38;3.08;;;1.58;;
55913;SDS011;58179;48.776;9.124;2023-04-15T14:26:05;6.05;;;1.77;;
55913;SDS011;58179;48.776;9.124;2023-04-15T14:28:31;5.90;;;1.90;;
55913;SDS011;58179;48.776;9.124;2023-04-15T14:30:56;2.83;;;1.80;;
55913;SDS011;58179;48.776;9.124;2023-04-15T14:33:22;3.08;;;1.77;;
55913;SDS011;58179;48.776;9.124;2023-04-15T14:35:48;3.70;;;2.10;;
55913;SDS011;58179;48.776;9.124;2023-04-15T14:38:16;2.73;;;2.03;;
55913;SDS011;58179;48.776;9.124;2023-04-15T14:40:42;2.60;;;2.00;;
55913;SDS011;58179;48.776;9.124;2023-04-15T14:43:08;4.65;;;2.47;;
55913;SDS011;58179;48.776;9.124;2023-04-15T14:45:36;3.97;;;2.42;;
55913;SDS011;58179;48.776;9.124;2023-04-15T14:48:03;4.00;;;2.30;;
55913;SDS011;58179;48.776;9.124;2023-04-15T14:50:30;4.35;;;2.45;;
55913;SDS011;58179;48.776;9.124;2023-04-15T14:52:56;3.47;;;2.22;;
55913;SDS011;58179;48.776;9.124;2023-04-15T14:55:24;4.60;;;2.33;;